DLH14E EDDF-EDDH
Flight info
| Callsign | DLH14E |
|---|---|
| Flight time | 0h 46m |
| Altitude | 35000 |
| Route | MARUN3W MARUN Y150 TOLGI DCT SAS/N0438F340 P605 NOLGO NOLGO6A |
| Aircraft | A320/M-SDE3FGHIRWY/LB1 |
Departure
| Time | 2026-05-06 14:35 |
|---|---|
| Airport | Frankfurt Main Airport (EDDF) |
Arrival
| Time | 2026-05-06 15:21 |
|---|---|
| Airport | Hamburg Helmut Schmidt Airport (EDDH) |
| Time | Latitude | Longitude | Altitude | Speed | Heading |
|---|---|---|---|---|---|
| 2026-05-06 13:59 | 50.04416 | 8.56276 | 357 ft | 0 kts | 162° |
| 2026-05-06 14:19 | 50.04436 | 8.56265 | 362 ft | 4 kts | 161° |
| 2026-05-06 14:20 | 50.04461 | 8.56254 | 360 ft | 2 kts | 167° |
| 2026-05-06 14:20 | 50.04479 | 8.56250 | 360 ft | 4 kts | 215° |
| 2026-05-06 14:20 | 50.04489 | 8.56267 | 356 ft | 3 kts | 249° |
| 2026-05-06 14:20 | 50.04479 | 8.56228 | 359 ft | 4 kts | 249° |
| 2026-05-06 14:21 | 50.04470 | 8.56189 | 360 ft | 4 kts | 250° |
| 2026-05-06 14:21 | 50.04460 | 8.56149 | 358 ft | 4 kts | 250° |
| 2026-05-06 14:21 | 50.04453 | 8.56119 | 363 ft | 0 kts | 250° |
| 2026-05-06 14:26 | 50.04451 | 8.56112 | 363 ft | 4 kts | 250° |
| 2026-05-06 14:26 | 50.04421 | 8.56037 | 356 ft | 10 kts | 218° |
| 2026-05-06 14:26 | 50.04356 | 8.56050 | 358 ft | 9 kts | 160° |
| 2026-05-06 14:26 | 50.04346 | 8.56055 | 358 ft | 0 kts | 160° |
| 2026-05-06 14:27 | 50.04329 | 8.56064 | 359 ft | 8 kts | 161° |
| 2026-05-06 14:28 | 50.04291 | 8.56127 | 360 ft | 8 kts | 98° |
| 2026-05-06 14:28 | 50.04283 | 8.56204 | 359 ft | 7 kts | 126° |
| 2026-05-06 14:28 | 50.04240 | 8.56241 | 361 ft | 7 kts | 158° |
| 2026-05-06 14:28 | 50.04196 | 8.56265 | 356 ft | 6 kts | 160° |
| 2026-05-06 14:29 | 50.04157 | 8.56291 | 357 ft | 6 kts | 146° |
| 2026-05-06 14:29 | 50.04149 | 8.56361 | 359 ft | 9 kts | 77° |
| 2026-05-06 14:29 | 50.04173 | 8.56474 | 360 ft | 11 kts | 70° |
| 2026-05-06 14:29 | 50.04197 | 8.56573 | 362 ft | 9 kts | 69° |
| 2026-05-06 14:30 | 50.04216 | 8.56648 | 360 ft | 6 kts | 69° |
| 2026-05-06 14:30 | 50.04226 | 8.56694 | 360 ft | 3 kts | 71° |
| 2026-05-06 14:30 | 50.04232 | 8.56718 | 360 ft | 5 kts | 71° |
| 2026-05-06 14:30 | 50.04272 | 8.56886 | 361 ft | 23 kts | 70° |
| 2026-05-06 14:31 | 50.04324 | 8.57105 | 361 ft | 20 kts | 69° |
| 2026-05-06 14:31 | 50.04370 | 8.57300 | 364 ft | 18 kts | 70° |
| 2026-05-06 14:31 | 50.04414 | 8.57479 | 365 ft | 17 kts | 70° |
| 2026-05-06 14:31 | 50.04451 | 8.57637 | 365 ft | 14 kts | 70° |
| 2026-05-06 14:32 | 50.04484 | 8.57774 | 365 ft | 13 kts | 70° |
| 2026-05-06 14:32 | 50.04514 | 8.57902 | 368 ft | 12 kts | 69° |
| 2026-05-06 14:32 | 50.04543 | 8.58021 | 369 ft | 12 kts | 69° |
| 2026-05-06 14:32 | 50.04572 | 8.58141 | 369 ft | 11 kts | 69° |
| 2026-05-06 14:33 | 50.04593 | 8.58230 | 368 ft | 7 kts | 70° |
| 2026-05-06 14:33 | 50.04632 | 8.58393 | 372 ft | 30 kts | 70° |
| 2026-05-06 14:33 | 50.04654 | 8.58498 | 370 ft | 10 kts | 84° |
| 2026-05-06 14:33 | 50.04604 | 8.58585 | 369 ft | 11 kts | 161° |
| 2026-05-06 14:34 | 50.04517 | 8.58613 | 371 ft | 16 kts | 193° |
| 2026-05-06 14:34 | 50.04441 | 8.58397 | 373 ft | 46 kts | 250° |
| 2026-05-06 14:34 | 50.04243 | 8.57567 | 363 ft | 114 kts | 249° |
| 2026-05-06 14:34 | 50.03909 | 8.56158 | 425 ft | 158 kts | 250° |
| 2026-05-06 14:35 | 50.03528 | 8.54518 | 1161 ft | 162 kts | 249° |
| 2026-05-06 14:35 | 50.03131 | 8.52841 | 1893 ft | 174 kts | 250° |
| 2026-05-06 14:35 | 50.02674 | 8.50988 | 2489 ft | 191 kts | 248° |
| 2026-05-06 14:35 | 50.01915 | 8.49219 | 3188 ft | 206 kts | 223° |
| 2026-05-06 14:36 | 50.00663 | 8.48075 | 3821 ft | 210 kts | 200° |
| 2026-05-06 14:36 | 49.99240 | 8.47749 | 3993 ft | 207 kts | 187° |
| 2026-05-06 14:36 | 49.97805 | 8.47532 | 3945 ft | 206 kts | 189° |
| 2026-05-06 14:36 | 49.96397 | 8.47234 | 3938 ft | 203 kts | 192° |
| 2026-05-06 14:37 | 49.94997 | 8.46590 | 3978 ft | 223 kts | 202° |
| 2026-05-06 14:37 | 49.93482 | 8.45793 | 3929 ft | 234 kts | 199° |
| 2026-05-06 14:37 | 49.91924 | 8.45088 | 3788 ft | 233 kts | 200° |
| 2026-05-06 14:37 | 49.90536 | 8.43893 | 3862 ft | 228 kts | 230° |
| 2026-05-06 14:38 | 49.89952 | 8.41652 | 3956 ft | 232 kts | 269° |
| 2026-05-06 14:38 | 49.90424 | 8.39201 | 4540 ft | 245 kts | 297° |
| 2026-05-06 14:38 | 49.91440 | 8.37076 | 5604 ft | 248 kts | 312° |
| 2026-05-06 14:38 | 49.92876 | 8.35527 | 6530 ft | 257 kts | 332° |
| 2026-05-06 14:39 | 49.94574 | 8.34344 | 7160 ft | 277 kts | 333° |
| 2026-05-06 14:39 | 49.96375 | 8.33151 | 8070 ft | 285 kts | 334° |
| 2026-05-06 14:39 | 49.98227 | 8.31944 | 9096 ft | 290 kts | 335° |
| 2026-05-06 14:39 | 50.00106 | 8.30727 | 10104 ft | 298 kts | 335° |
| 2026-05-06 14:40 | 50.02123 | 8.29540 | 10556 ft | 324 kts | 342° |
| 2026-05-06 14:40 | 50.04422 | 8.28912 | 10998 ft | 345 kts | 355° |
| 2026-05-06 14:40 | 50.06863 | 8.29102 | 11766 ft | 355 kts | 8° |
| 2026-05-06 14:40 | 50.09264 | 8.30092 | 12616 ft | 360 kts | 17° |
| 2026-05-06 14:41 | 50.11649 | 8.31341 | 13422 ft | 364 kts | 17° |
| 2026-05-06 14:41 | 50.14038 | 8.32588 | 14110 ft | 368 kts | 17° |
| 2026-05-06 14:41 | 50.16477 | 8.33865 | 14807 ft | 372 kts | 17° |
| 2026-05-06 14:41 | 50.18950 | 8.35163 | 15488 ft | 377 kts | 17° |
| 2026-05-06 14:42 | 50.21455 | 8.36477 | 16172 ft | 381 kts | 18° |
| 2026-05-06 14:42 | 50.23978 | 8.37800 | 16849 ft | 385 kts | 17° |
| 2026-05-06 14:42 | 50.26548 | 8.39142 | 17515 ft | 390 kts | 18° |
| 2026-05-06 14:42 | 50.29132 | 8.40504 | 18164 ft | 394 kts | 18° |
| 2026-05-06 14:43 | 50.31741 | 8.41900 | 18743 ft | 398 kts | 18° |
| 2026-05-06 14:43 | 50.34362 | 8.43330 | 19343 ft | 401 kts | 18° |
| 2026-05-06 14:43 | 50.37011 | 8.44786 | 19917 ft | 405 kts | 18° |
| 2026-05-06 14:43 | 50.39682 | 8.46259 | 20563 ft | 408 kts | 18° |
| 2026-05-06 14:44 | 50.42378 | 8.47744 | 21244 ft | 413 kts | 17° |
| 2026-05-06 14:44 | 50.45100 | 8.49236 | 21881 ft | 416 kts | 17° |
| 2026-05-06 14:44 | 50.47845 | 8.50737 | 22449 ft | 419 kts | 17° |
| 2026-05-06 14:45 | 50.53439 | 8.53518 | 23488 ft | 424 kts | 14° |
| 2026-05-06 14:45 | 50.56251 | 8.54827 | 23720 ft | 426 kts | 14° |
| 2026-05-06 14:45 | 50.59104 | 8.56143 | 23781 ft | 430 kts | 13° |
| 2026-05-06 14:45 | 50.61975 | 8.57479 | 23784 ft | 431 kts | 14° |
| 2026-05-06 14:46 | 50.64855 | 8.58839 | 23784 ft | 432 kts | 14° |
| 2026-05-06 14:46 | 50.67729 | 8.60216 | 23777 ft | 432 kts | 14° |
| 2026-05-06 14:46 | 50.70606 | 8.61605 | 23778 ft | 432 kts | 14° |
| 2026-05-06 14:46 | 50.73475 | 8.62995 | 23777 ft | 432 kts | 14° |
| 2026-05-06 14:47 | 50.76352 | 8.64392 | 23770 ft | 432 kts | 14° |
| 2026-05-06 14:47 | 50.79152 | 8.66137 | 23771 ft | 435 kts | 24° |
| 2026-05-06 14:47 | 50.81755 | 8.68610 | 23772 ft | 437 kts | 34° |
| 2026-05-06 14:47 | 50.84075 | 8.71726 | 23775 ft | 439 kts | 44° |
| 2026-05-06 14:48 | 50.86063 | 8.75394 | 23777 ft | 439 kts | 52° |
| 2026-05-06 14:48 | 50.87909 | 8.79245 | 23775 ft | 439 kts | 52° |
| 2026-05-06 14:48 | 50.89756 | 8.83101 | 23775 ft | 439 kts | 52° |
| 2026-05-06 14:48 | 50.91603 | 8.86957 | 23776 ft | 439 kts | 52° |
| 2026-05-06 14:49 | 50.93453 | 8.90827 | 23772 ft | 439 kts | 52° |
| 2026-05-06 14:49 | 50.95298 | 8.94699 | 23776 ft | 439 kts | 52° |
| 2026-05-06 14:49 | 50.97135 | 8.98564 | 23776 ft | 439 kts | 52° |
| 2026-05-06 14:49 | 50.98975 | 9.02439 | 23790 ft | 439 kts | 52° |
| 2026-05-06 14:50 | 51.00816 | 9.06311 | 23779 ft | 440 kts | 53° |
| 2026-05-06 14:50 | 51.02659 | 9.10191 | 23784 ft | 440 kts | 53° |
| 2026-05-06 14:50 | 51.04506 | 9.14085 | 23783 ft | 440 kts | 53° |
| 2026-05-06 14:50 | 51.06342 | 9.17966 | 23782 ft | 440 kts | 53° |
| 2026-05-06 14:51 | 51.08256 | 9.21754 | 23783 ft | 439 kts | 46° |
| 2026-05-06 14:51 | 51.10513 | 9.25034 | 23782 ft | 438 kts | 36° |
| 2026-05-06 14:51 | 51.13032 | 9.27629 | 23783 ft | 436 kts | 26° |
| 2026-05-06 14:51 | 51.15801 | 9.29555 | 23786 ft | 434 kts | 16° |
| 2026-05-06 14:52 | 51.18709 | 9.30774 | 23782 ft | 431 kts | 9° |
| 2026-05-06 14:52 | 51.21645 | 9.31786 | 23791 ft | 431 kts | 10° |
| 2026-05-06 14:52 | 51.24564 | 9.32798 | 23784 ft | 429 kts | 10° |
| 2026-05-06 14:52 | 51.27482 | 9.33810 | 23782 ft | 428 kts | 10° |
| 2026-05-06 14:53 | 51.30389 | 9.34820 | 23784 ft | 428 kts | 10° |
| 2026-05-06 14:53 | 51.33301 | 9.35840 | 23787 ft | 428 kts | 11° |
| 2026-05-06 14:53 | 51.36211 | 9.36862 | 23787 ft | 428 kts | 10° |
| 2026-05-06 14:53 | 51.39121 | 9.37877 | 23785 ft | 428 kts | 10° |
| 2026-05-06 14:54 | 51.42034 | 9.38893 | 23787 ft | 428 kts | 10° |
| 2026-05-06 14:54 | 51.44941 | 9.39910 | 23786 ft | 426 kts | 11° |
| 2026-05-06 14:54 | 51.47816 | 9.40916 | 23782 ft | 423 kts | 11° |
| 2026-05-06 14:54 | 51.50704 | 9.41925 | 23783 ft | 422 kts | 11° |
| 2026-05-06 14:55 | 51.53571 | 9.42923 | 23785 ft | 422 kts | 11° |
| 2026-05-06 14:55 | 51.56448 | 9.43923 | 23785 ft | 422 kts | 11° |
| 2026-05-06 14:55 | 51.59312 | 9.44923 | 23788 ft | 422 kts | 11° |
| 2026-05-06 14:55 | 51.62182 | 9.45936 | 23791 ft | 422 kts | 11° |
| 2026-05-06 14:56 | 51.65052 | 9.46956 | 23792 ft | 422 kts | 11° |
| 2026-05-06 14:56 | 51.67919 | 9.47975 | 23800 ft | 421 kts | 11° |
| 2026-05-06 14:56 | 51.70769 | 9.48989 | 23797 ft | 418 kts | 11° |
| 2026-05-06 14:56 | 51.73610 | 9.49996 | 23804 ft | 418 kts | 11° |
| 2026-05-06 14:57 | 51.76445 | 9.51001 | 23807 ft | 418 kts | 11° |
| 2026-05-06 14:57 | 51.79281 | 9.52007 | 23808 ft | 417 kts | 11° |
| 2026-05-06 14:57 | 51.82108 | 9.53108 | 23807 ft | 418 kts | 16° |
| 2026-05-06 14:57 | 51.84810 | 9.54824 | 23808 ft | 420 kts | 25° |
| 2026-05-06 14:58 | 51.87408 | 9.56972 | 23810 ft | 420 kts | 26° |
| 2026-05-06 14:58 | 51.90008 | 9.59131 | 23819 ft | 420 kts | 26° |
| 2026-05-06 14:58 | 51.92611 | 9.61294 | 23813 ft | 421 kts | 26° |
| 2026-05-06 14:58 | 51.95215 | 9.63456 | 23815 ft | 421 kts | 26° |
| 2026-05-06 14:59 | 51.97828 | 9.65623 | 23813 ft | 421 kts | 26° |
| 2026-05-06 14:59 | 52.00434 | 9.67787 | 23815 ft | 421 kts | 26° |
| 2026-05-06 14:59 | 52.03046 | 9.69958 | 23816 ft | 421 kts | 26° |
| 2026-05-06 14:59 | 52.05651 | 9.72127 | 23816 ft | 421 kts | 26° |
| 2026-05-06 15:00 | 52.08257 | 9.74302 | 23820 ft | 421 kts | 26° |
| 2026-05-06 15:00 | 52.10864 | 9.76484 | 23822 ft | 421 kts | 26° |
| 2026-05-06 15:00 | 52.13470 | 9.78668 | 23827 ft | 421 kts | 26° |
| 2026-05-06 15:00 | 52.16075 | 9.80851 | 23823 ft | 421 kts | 26° |
| 2026-05-06 15:01 | 52.18678 | 9.83039 | 23829 ft | 421 kts | 26° |
| 2026-05-06 15:01 | 52.21262 | 9.85211 | 23715 ft | 413 kts | 26° |
| 2026-05-06 15:01 | 52.23805 | 9.87326 | 23222 ft | 407 kts | 24° |
| 2026-05-06 15:01 | 52.26426 | 9.88997 | 22636 ft | 402 kts | 15° |
| 2026-05-06 15:02 | 52.29118 | 9.90202 | 22056 ft | 399 kts | 13° |
| 2026-05-06 15:02 | 52.31796 | 9.91371 | 21472 ft | 397 kts | 13° |
| 2026-05-06 15:02 | 52.34452 | 9.92533 | 20907 ft | 395 kts | 13° |
| 2026-05-06 15:02 | 52.37105 | 9.93694 | 20396 ft | 392 kts | 14° |
| 2026-05-06 15:03 | 52.39729 | 9.94844 | 19910 ft | 389 kts | 14° |
| 2026-05-06 15:03 | 52.42339 | 9.95998 | 19395 ft | 387 kts | 14° |
| 2026-05-06 15:03 | 52.44933 | 9.97147 | 18897 ft | 385 kts | 14° |
| 2026-05-06 15:03 | 52.47478 | 9.98273 | 18414 ft | 384 kts | 14° |
| 2026-05-06 15:04 | 52.50051 | 9.99419 | 17900 ft | 382 kts | 14° |
| 2026-05-06 15:04 | 52.52608 | 10.00561 | 17356 ft | 380 kts | 13° |
| 2026-05-06 15:04 | 52.55156 | 10.01697 | 16846 ft | 378 kts | 13° |
| 2026-05-06 15:04 | 52.57692 | 10.02823 | 16365 ft | 376 kts | 13° |
| 2026-05-06 15:05 | 52.60204 | 10.03937 | 15916 ft | 373 kts | 14° |
| 2026-05-06 15:05 | 52.62710 | 10.05052 | 15471 ft | 370 kts | 14° |
| 2026-05-06 15:05 | 52.65180 | 10.06155 | 15020 ft | 367 kts | 14° |
| 2026-05-06 15:05 | 52.67638 | 10.07257 | 14580 ft | 365 kts | 14° |
| 2026-05-06 15:06 | 52.70080 | 10.08353 | 14140 ft | 363 kts | 14° |
| 2026-05-06 15:06 | 52.72510 | 10.09444 | 13723 ft | 360 kts | 14° |
| 2026-05-06 15:06 | 52.74928 | 10.10531 | 13270 ft | 358 kts | 14° |
| 2026-05-06 15:06 | 52.77334 | 10.11507 | 12808 ft | 355 kts | 8° |
| 2026-05-06 15:07 | 52.79775 | 10.11856 | 12342 ft | 351 kts | 359° |
| 2026-05-06 15:07 | 52.82223 | 10.11925 | 11857 ft | 349 kts | 359° |
| 2026-05-06 15:07 | 52.84639 | 10.12001 | 11414 ft | 345 kts | 0° |
| 2026-05-06 15:07 | 52.87023 | 10.12080 | 10985 ft | 341 kts | 1° |
| 2026-05-06 15:08 | 52.89391 | 10.12157 | 10520 ft | 339 kts | 2° |
| 2026-05-06 15:08 | 52.91744 | 10.12246 | 10086 ft | 336 kts | 2° |
| 2026-05-06 15:08 | 52.94071 | 10.12328 | 9839 ft | 331 kts | 2° |
| 2026-05-06 15:08 | 52.96307 | 10.12399 | 9828 ft | 313 kts | 2° |
| 2026-05-06 15:09 | 52.98416 | 10.12462 | 9835 ft | 302 kts | 2° |
| 2026-05-06 15:09 | 53.00500 | 10.12525 | 9838 ft | 298 kts | 2° |
| 2026-05-06 15:09 | 53.02566 | 10.12590 | 9839 ft | 297 kts | 2° |
| 2026-05-06 15:09 | 53.04634 | 10.12656 | 9841 ft | 298 kts | 2° |
| 2026-05-06 15:10 | 53.06706 | 10.12726 | 9842 ft | 298 kts | 2° |
| 2026-05-06 15:10 | 53.08104 | 10.12668 | 9843 ft | 298 kts | 353° |
| 2026-05-06 15:10 | 53.10065 | 10.11643 | 9600 ft | 295 kts | 336° |
| 2026-05-06 15:10 | 53.11927 | 10.10189 | 9174 ft | 295 kts | 334° |
| 2026-05-06 15:11 | 53.13739 | 10.08704 | 8876 ft | 292 kts | 335° |
| 2026-05-06 15:11 | 53.15561 | 10.07164 | 8850 ft | 295 kts | 334° |
| 2026-05-06 15:11 | 53.17389 | 10.05615 | 8857 ft | 294 kts | 334° |
| 2026-05-06 15:11 | 53.19208 | 10.04038 | 8857 ft | 295 kts | 330° |
| 2026-05-06 15:12 | 53.20904 | 10.02141 | 8859 ft | 293 kts | 325° |
| 2026-05-06 15:12 | 53.22567 | 10.00180 | 8856 ft | 287 kts | 329° |
| 2026-05-06 15:12 | 53.24215 | 9.98460 | 8799 ft | 273 kts | 326° |
| 2026-05-06 15:12 | 53.25725 | 9.96637 | 8673 ft | 263 kts | 324° |
| 2026-05-06 15:13 | 53.27164 | 9.94855 | 8547 ft | 252 kts | 324° |
| 2026-05-06 15:13 | 53.28536 | 9.93130 | 8369 ft | 243 kts | 324° |
| 2026-05-06 15:13 | 53.29877 | 9.91421 | 8087 ft | 241 kts | 324° |
| 2026-05-06 15:13 | 53.31200 | 9.89737 | 7847 ft | 237 kts | 324° |
| 2026-05-06 15:14 | 53.32505 | 9.88064 | 7560 ft | 236 kts | 324° |
| 2026-05-06 15:14 | 53.33801 | 9.86386 | 7312 ft | 234 kts | 324° |
| 2026-05-06 15:14 | 53.35070 | 9.84732 | 7080 ft | 230 kts | 324° |
| 2026-05-06 15:14 | 53.36324 | 9.83082 | 6809 ft | 228 kts | 324° |
| 2026-05-06 15:15 | 53.37565 | 9.81420 | 6511 ft | 228 kts | 324° |
| 2026-05-06 15:15 | 53.38795 | 9.79746 | 6220 ft | 227 kts | 324° |
| 2026-05-06 15:15 | 53.40019 | 9.78083 | 5920 ft | 226 kts | 324° |
| 2026-05-06 15:15 | 53.41233 | 9.76421 | 5628 ft | 225 kts | 324° |
| 2026-05-06 15:16 | 53.42444 | 9.74767 | 5340 ft | 224 kts | 324° |
| 2026-05-06 15:16 | 53.43651 | 9.73113 | 4992 ft | 226 kts | 324° |
| 2026-05-06 15:16 | 53.44920 | 9.71542 | 4588 ft | 226 kts | 339° |
| 2026-05-06 15:16 | 53.46420 | 9.71117 | 4173 ft | 219 kts | 12° |
| 2026-05-06 15:17 | 53.47819 | 9.72052 | 3760 ft | 217 kts | 36° |
| 2026-05-06 15:17 | 53.49076 | 9.73478 | 3342 ft | 219 kts | 36° |
| 2026-05-06 15:17 | 53.50339 | 9.74911 | 3031 ft | 217 kts | 36° |
| 2026-05-06 15:17 | 53.51557 | 9.76286 | 3003 ft | 204 kts | 37° |
| 2026-05-06 15:18 | 53.52579 | 9.77806 | 2923 ft | 193 kts | 49° |
| 2026-05-06 15:18 | 53.53449 | 9.79508 | 2728 ft | 191 kts | 51° |
| 2026-05-06 15:18 | 53.54298 | 9.81212 | 2487 ft | 189 kts | 51° |
| 2026-05-06 15:18 | 53.55134 | 9.82892 | 2234 ft | 187 kts | 50° |
| 2026-05-06 15:19 | 53.55963 | 9.84559 | 1978 ft | 184 kts | 50° |
| 2026-05-06 15:19 | 53.56780 | 9.86201 | 1731 ft | 182 kts | 50° |
| 2026-05-06 15:19 | 53.57594 | 9.87838 | 1478 ft | 183 kts | 50° |
| 2026-05-06 15:19 | 53.58402 | 9.89465 | 1223 ft | 183 kts | 50° |
| 2026-05-06 15:20 | 53.59200 | 9.91074 | 972 ft | 172 kts | 50° |
| 2026-05-06 15:20 | 53.59922 | 9.92530 | 726 ft | 154 kts | 50° |
| 2026-05-06 15:20 | 53.60576 | 9.93848 | 513 ft | 140 kts | 50° |
| 2026-05-06 15:20 | 53.61170 | 9.95043 | 374 ft | 128 kts | 50° |
| 2026-05-06 15:21 | 53.61730 | 9.96183 | 131 ft | 123 kts | 51° |
| 2026-05-06 15:21 | 53.62259 | 9.97276 | 48 ft | 112 kts | 51° |
| 2026-05-06 15:21 | 53.62642 | 9.98040 | 43 ft | 45 kts | 48° |
| 2026-05-06 15:21 | 53.62802 | 9.98364 | 45 ft | 43 kts | 52° |
| 2026-05-06 15:22 | 53.63029 | 9.98820 | 43 ft | 56 kts | 50° |
| 2026-05-06 15:22 | 53.63269 | 9.99305 | 47 ft | 46 kts | 50° |
| 2026-05-06 15:22 | 53.63432 | 9.99625 | 44 ft | 29 kts | 52° |
| 2026-05-06 15:22 | 53.63524 | 9.99844 | 45 ft | 16 kts | 70° |
| 2026-05-06 15:23 | 53.63508 | 9.99941 | 44 ft | 0 kts | 124° |
| 2026-05-06 15:23 | 53.63475 | 10.00016 | 46 ft | 8 kts | 126° |
| 2026-05-06 15:24 | 53.63472 | 10.00023 | 46 ft | 0 kts | 126° |
| 2026-05-06 15:25 | 53.63471 | 10.00025 | 46 ft | 3 kts | 126° |
| 2026-05-06 15:25 | 53.63438 | 10.00106 | 46 ft | 5 kts | 126° |
| 2026-05-06 15:25 | 53.63414 | 10.00144 | 46 ft | 4 kts | 149° |
| 2026-05-06 15:26 | 53.63385 | 10.00158 | 46 ft | 4 kts | 172° |
| 2026-05-06 15:26 | 53.63356 | 10.00163 | 46 ft | 4 kts | 174° |
| 2026-05-06 15:26 | 53.63309 | 10.00167 | 46 ft | 10 kts | 177° |
| 2026-05-06 15:26 | 53.63246 | 10.00190 | 44 ft | 9 kts | 133° |
| 2026-05-06 15:27 | 53.63224 | 10.00267 | 46 ft | 2 kts | 150° |
| 2026-05-06 15:27 | 53.63217 | 10.00279 | 44 ft | 2 kts | 134° |
| 2026-05-06 15:27 | 53.63206 | 10.00305 | 46 ft | 4 kts | 118° |
| 2026-05-06 15:27 | 53.63208 | 10.00343 | 46 ft | 3 kts | 85° |
| 2026-05-06 15:28 | 53.63209 | 10.00371 | 46 ft | 0 kts | 86° |